createdAt,value
2023-03-24T00:01:05.032Z,97.20
2023-03-24T00:04:52.529Z,97.20
2023-03-24T00:08:36.864Z,97.10
2023-03-24T00:12:18.925Z,97.10
2023-03-24T00:16:02.202Z,97.10
2023-03-24T00:19:47.509Z,97.00
2023-03-24T00:23:34.108Z,97.00
2023-03-24T00:27:17.689Z,97.00
2023-03-24T00:31:02.082Z,96.90
2023-03-24T00:34:44.005Z,97.00
2023-03-24T00:38:26.674Z,97.00
2023-03-24T00:42:09.197Z,96.90
2023-03-24T00:45:57.473Z,96.90
2023-03-24T00:49:42.301Z,96.90
2023-03-24T00:53:25.950Z,96.80
2023-03-24T00:57:09.512Z,96.90
2023-03-24T01:00:54.743Z,96.90
2023-03-24T01:04:36.903Z,96.90
2023-03-24T01:08:21.919Z,96.90
2023-03-24T01:12:04.650Z,96.90
2023-03-24T01:15:46.777Z,96.90
2023-03-24T01:19:29.089Z,96.90
2023-03-24T01:23:12.158Z,96.80
2023-03-24T01:26:54.171Z,96.80
2023-03-24T01:30:37.422Z,96.80
2023-03-24T01:34:19.369Z,96.80
2023-03-24T01:38:04.661Z,96.80
2023-03-24T01:41:46.526Z,96.80
2023-03-24T01:45:45.641Z,96.80
2023-03-24T01:49:36.749Z,96.70
2023-03-24T01:53:18.793Z,96.70
2023-03-24T01:57:06.813Z,96.70
2023-03-24T02:00:49.255Z,96.70
2023-03-24T02:04:35.791Z,96.70
2023-03-24T02:08:27.107Z,96.70
2023-03-24T02:12:09.178Z,96.70
2023-03-24T02:16:13.647Z,96.70
2023-03-24T02:20:13.914Z,96.70
2023-03-24T02:24:27.994Z,96.70
2023-03-24T02:28:36.993Z,96.70
2023-03-24T02:32:33.860Z,96.60
2023-03-24T02:36:48.447Z,96.60
2023-03-24T02:41:03.802Z,96.60
2023-03-24T02:44:57.441Z,96.50
2023-03-24T02:49:17.776Z,96.70
2023-03-24T02:53:12.994Z,96.60
2023-03-24T02:56:54.843Z,96.70
2023-03-24T03:00:47.719Z,97.00
2023-03-24T03:04:34.744Z,96.70
2023-03-24T03:08:21.190Z,96.80
2023-03-24T03:12:07.363Z,96.90
2023-03-24T03:15:54.136Z,96.90
2023-03-24T03:19:52.689Z,96.90
2023-03-24T03:23:45.860Z,96.90
2023-03-24T03:27:33.126Z,96.90
2023-03-24T03:31:16.378Z,97.00
2023-03-24T03:35:09.960Z,96.80
2023-03-24T03:39:28.163Z,97.00
2023-03-24T03:43:10.098Z,96.90
2023-03-24T03:46:52.773Z,97.00
2023-03-24T03:50:35.131Z,96.90
2023-03-24T03:54:18.214Z,96.90
2023-03-24T03:58:00.485Z,97.00
2023-03-24T04:01:42.415Z,97.00
2023-03-24T04:05:35.822Z,97.00
2023-03-24T04:09:55.384Z,97.00
2023-03-24T04:14:06.698Z,96.90
2023-03-24T04:18:09.029Z,96.90
2023-03-24T04:22:17.394Z,97.00
2023-03-24T04:26:06.265Z,97.00
2023-03-24T04:30:10.313Z,97.10
2023-03-24T04:34:06.077Z,97.10
2023-03-24T04:37:48.486Z,97.10
2023-03-24T04:41:31.972Z,97.20
2023-03-24T04:45:17.080Z,97.30
2023-03-24T04:48:58.951Z,97.40
2023-03-24T04:52:42.640Z,97.50
2023-03-24T04:56:34.425Z,97.60
2023-03-24T05:00:16.922Z,97.60
2023-03-24T05:03:59.637Z,97.70
2023-03-24T05:07:42.534Z,97.70
2023-03-24T05:11:24.671Z,97.80
2023-03-24T05:15:07.010Z,97.80
2023-03-24T05:18:49.040Z,97.90
2023-03-24T05:22:30.829Z,98.00
2023-03-24T05:26:12.685Z,98.10
2023-03-24T05:29:54.478Z,98.20
2023-03-24T05:33:36.333Z,98.20
2023-03-24T05:37:18.199Z,98.30
2023-03-24T05:41:00.948Z,98.40
2023-03-24T05:44:43.065Z,98.60
2023-03-24T05:48:24.917Z,98.70
2023-03-24T05:52:09.212Z,98.80
2023-03-24T05:55:53.688Z,98.80
2023-03-24T05:59:35.892Z,98.90
2023-03-24T06:03:18.262Z,99.00
2023-03-24T06:07:00.452Z,99.10
2023-03-24T06:10:42.250Z,99.20
2023-03-24T06:14:24.073Z,99.40
2023-03-24T06:18:05.976Z,99.50
2023-03-24T06:21:50.604Z,99.60
2023-03-24T06:25:33.632Z,99.60
2023-03-24T06:29:18.209Z,99.70
2023-03-24T06:33:00.195Z,99.80
2023-03-24T06:36:42.205Z,99.80
2023-03-24T06:40:24.018Z,99.90
2023-03-24T06:44:05.913Z,99.80
2023-03-24T06:47:47.793Z,99.90
2023-03-24T06:51:29.631Z,99.90
2023-03-24T06:55:11.481Z,99.90
2023-03-24T06:58:53.897Z,99.90
2023-03-24T07:02:35.973Z,99.90
2023-03-24T07:06:18.694Z,99.90
2023-03-24T07:10:00.892Z,99.90
2023-03-24T07:13:42.691Z,99.90
2023-03-24T07:17:25.313Z,99.90
2023-03-24T07:21:07.614Z,99.90
2023-03-24T07:24:49.422Z,99.90
2023-03-24T07:28:31.214Z,99.90
2023-03-24T07:32:13.038Z,99.90
2023-03-24T07:35:56.332Z,99.90
2023-03-24T07:39:38.295Z,99.90
2023-03-24T07:43:20.435Z,99.90
2023-03-24T07:47:02.335Z,99.90
2023-03-24T07:50:44.487Z,99.90
2023-03-24T07:54:27.142Z,99.90
2023-03-24T07:58:09.005Z,99.90
2023-03-24T08:01:54.425Z,99.90
2023-03-24T08:05:39.255Z,99.90
2023-03-24T08:09:24.202Z,99.90
2023-03-24T08:13:06.184Z,99.90
2023-03-24T08:16:48.063Z,99.90
2023-03-24T08:20:30.019Z,99.90
2023-03-24T08:24:11.847Z,99.90
2023-03-24T08:27:53.818Z,99.90
2023-03-24T08:31:37.177Z,99.90
2023-03-24T08:35:25.724Z,99.50
2023-03-24T08:39:09.837Z,99.10
2023-03-24T08:42:54.755Z,98.70
2023-03-24T08:46:39.060Z,97.90
2023-03-24T08:50:24.545Z,97.50
2023-03-24T08:54:06.409Z,96.80
2023-03-24T08:57:49.046Z,96.10
2023-03-24T09:01:30.962Z,95.60
2023-03-24T09:05:15.408Z,95.10
2023-03-24T09:08:57.290Z,94.80
2023-03-24T09:12:40.634Z,93.70
2023-03-24T09:16:23.432Z,92.30
2023-03-24T09:20:10.283Z,92.10
2023-03-24T09:23:52.149Z,91.90
2023-03-24T09:27:34.234Z,91.20
2023-03-24T09:31:16.140Z,89.80
2023-03-24T09:34:58.035Z,89.00
2023-03-24T09:38:39.863Z,89.70
2023-03-24T09:42:26.794Z,88.90
2023-03-24T09:46:35.929Z,88.10
2023-03-24T09:50:52.983Z,88.00
2023-03-24T09:55:00.021Z,87.10
2023-03-24T09:58:43.532Z,84.30
2023-03-24T10:02:29.183Z,81.30
2023-03-24T10:06:23.134Z,82.70
2023-03-24T10:10:22.543Z,81.90
2023-03-24T10:14:13.099Z,83.00
2023-03-24T10:18:12.636Z,80.60
2023-03-24T10:22:21.079Z,78.40
2023-03-24T10:26:31.030Z,78.60
2023-03-24T10:30:31.613Z,79.60
2023-03-24T10:34:14.305Z,80.90
2023-03-24T10:38:00.194Z,80.10
2023-03-24T10:41:44.119Z,81.40
2023-03-24T10:45:33.467Z,83.10
2023-03-24T10:49:19.831Z,84.50
2023-03-24T10:53:10.020Z,85.70
2023-03-24T10:56:58.115Z,86.40
2023-03-24T11:00:41.080Z,87.80
2023-03-24T11:04:24.720Z,89.00
2023-03-24T11:08:28.697Z,90.00
2023-03-24T11:12:32.125Z,89.60
2023-03-24T11:16:16.461Z,88.80
2023-03-24T11:19:58.388Z,89.90
2023-03-24T11:23:45.716Z,90.20
2023-03-24T11:27:27.764Z,86.90
2023-03-24T11:31:19.209Z,87.90
2023-03-24T11:35:17.781Z,82.70
2023-03-24T11:39:12.374Z,78.40
2023-03-24T11:43:04.229Z,74.30
2023-03-24T11:46:58.427Z,76.20
2023-03-24T11:50:41.992Z,74.30
2023-03-24T11:54:32.558Z,69.70
2023-03-24T11:58:14.919Z,69.20
2023-03-24T12:02:31.352Z,64.00
2023-03-24T12:06:44.689Z,67.00
2023-03-24T12:10:41.161Z,66.70
2023-03-24T12:14:36.973Z,63.00
2023-03-24T12:18:34.596Z,61.30
2023-03-24T12:22:23.046Z,62.70
2023-03-24T12:26:17.012Z,61.80
2023-03-24T12:30:26.711Z,58.80
2023-03-24T12:34:20.452Z,59.60
2023-03-24T12:38:22.562Z,62.40
2023-03-24T12:42:12.669Z,62.60
2023-03-24T12:45:56.918Z,64.40
2023-03-24T12:49:41.476Z,66.10
2023-03-24T12:53:41.976Z,66.50
2023-03-24T12:57:28.417Z,67.20
2023-03-24T13:01:22.984Z,65.80
2023-03-24T13:05:16.138Z,67.80
2023-03-24T13:09:13.409Z,68.00
2023-03-24T13:12:58.078Z,70.10
2023-03-24T13:16:40.865Z,70.70
2023-03-24T13:20:33.141Z,72.10
2023-03-24T13:24:15.621Z,72.70
2023-03-24T13:28:00.999Z,73.00
2023-03-24T13:32:05.337Z,73.80
2023-03-24T13:36:07.033Z,75.00
2023-03-24T13:39:58.904Z,75.80
2023-03-24T13:43:49.669Z,73.10
2023-03-24T13:48:03.481Z,72.60
2023-03-24T13:51:46.766Z,73.70
2023-03-24T13:55:30.442Z,72.60
2023-03-24T13:59:44.035Z,73.20
2023-03-24T14:03:34.414Z,73.90
2023-03-24T14:07:40.931Z,73.80
2023-03-24T14:11:34.818Z,73.40
2023-03-24T14:15:20.362Z,73.10
2023-03-24T14:19:29.940Z,72.40
2023-03-24T14:23:40.394Z,72.80
2023-03-24T14:27:29.978Z,74.50
2023-03-24T14:31:17.575Z,73.90
2023-03-24T14:35:00.291Z,74.00
2023-03-24T14:38:44.577Z,74.70
2023-03-24T14:42:32.271Z,75.00
2023-03-24T14:46:19.854Z,74.90
2023-03-24T14:50:10.575Z,75.30
2023-03-24T14:53:57.983Z,75.40
2023-03-24T14:57:43.160Z,75.80
2023-03-24T15:01:32.091Z,75.60
2023-03-24T15:05:31.934Z,76.50
2023-03-24T15:09:17.309Z,75.80
2023-03-24T15:12:59.171Z,76.50
2023-03-24T15:16:41.210Z,76.10
2023-03-24T15:20:28.123Z,75.80
2023-03-24T15:24:21.782Z,76.40
2023-03-24T15:28:18.792Z,77.40
2023-03-24T15:32:00.908Z,78.00
2023-03-24T15:35:43.871Z,78.70
2023-03-24T15:39:33.759Z,80.20
2023-03-24T15:43:22.381Z,79.60
2023-03-24T15:47:07.157Z,78.80
2023-03-24T15:51:06.320Z,77.90
2023-03-24T15:54:48.169Z,78.70
2023-03-24T15:58:33.612Z,78.30
2023-03-24T16:02:39.979Z,78.60
2023-03-24T16:06:30.950Z,80.40
2023-03-24T16:10:42.956Z,80.70
2023-03-24T16:14:29.856Z,81.00
2023-03-24T16:18:20.221Z,81.40
2023-03-24T16:22:02.354Z,81.10
2023-03-24T16:25:44.593Z,81.00
2023-03-24T16:29:26.480Z,80.10
2023-03-24T16:33:08.429Z,78.90
2023-03-24T16:36:52.471Z,78.20
2023-03-24T16:40:36.888Z,78.40
2023-03-24T16:44:19.614Z,79.30
2023-03-24T16:48:01.555Z,80.30
2023-03-24T16:51:44.577Z,81.70
2023-03-24T16:55:26.486Z,81.90
2023-03-24T16:59:09.340Z,81.00
2023-03-24T17:02:53.923Z,80.40
2023-03-24T17:06:37.863Z,80.90
2023-03-24T17:10:20.449Z,82.00
2023-03-24T17:14:04.887Z,83.00
2023-03-24T17:17:46.940Z,83.70
2023-03-24T17:21:29.541Z,84.60
2023-03-24T17:25:16.399Z,85.20
2023-03-24T17:28:58.373Z,85.00
2023-03-24T17:32:40.441Z,84.90
2023-03-24T17:36:23.028Z,84.90
2023-03-24T17:40:10.823Z,85.60
2023-03-24T17:43:52.980Z,86.40
2023-03-24T17:47:35.937Z,86.20
2023-03-24T17:51:17.984Z,86.00
2023-03-24T17:55:00.029Z,86.40
2023-03-24T17:58:47.540Z,86.50
2023-03-24T18:02:29.671Z,86.00
2023-03-24T18:06:13.687Z,86.30
2023-03-24T18:09:55.530Z,86.50
2023-03-24T18:13:37.678Z,86.40
2023-03-24T18:17:19.633Z,86.50
2023-03-24T18:21:02.235Z,86.50
2023-03-24T18:24:44.140Z,86.20
2023-03-24T18:28:26.466Z,86.50
2023-03-24T18:32:08.585Z,86.30
2023-03-24T18:35:52.886Z,86.30
2023-03-24T18:39:35.984Z,86.50
2023-03-24T18:43:18.666Z,86.40
2023-03-24T18:47:01.284Z,86.50
2023-03-24T18:50:43.449Z,86.70
2023-03-24T18:54:25.520Z,86.40
2023-03-24T18:58:10.896Z,86.70
2023-03-24T19:01:53.670Z,87.00
2023-03-24T19:05:36.947Z,87.20
2023-03-24T19:09:21.252Z,87.20
2023-03-24T19:13:05.673Z,87.20
2023-03-24T19:16:48.026Z,87.10
2023-03-24T19:20:30.378Z,86.80
2023-03-24T19:24:12.602Z,86.50
2023-03-24T19:27:54.749Z,86.70
2023-03-24T19:31:37.384Z,86.70
2023-03-24T19:35:20.298Z,86.90
2023-03-24T19:39:03.346Z,87.00
2023-03-24T19:42:46.914Z,87.30
2023-03-24T19:46:29.251Z,87.40
2023-03-24T19:50:12.699Z,87.70
2023-03-24T19:53:55.154Z,87.90
2023-03-24T19:57:38.777Z,88.20
2023-03-24T20:01:21.815Z,88.60
2023-03-24T20:05:04.880Z,89.00
2023-03-24T20:08:47.555Z,89.00
2023-03-24T20:12:30.184Z,88.90
2023-03-24T20:16:12.782Z,88.90
2023-03-24T20:19:56.280Z,88.50
2023-03-24T20:23:38.283Z,88.70
2023-03-24T20:27:20.158Z,88.60
2023-03-24T20:31:03.391Z,88.70
2023-03-24T20:34:45.701Z,88.90
2023-03-24T20:38:28.207Z,89.10
2023-03-24T20:42:11.286Z,89.20
2023-03-24T20:45:57.356Z,89.20
2023-03-24T20:49:39.422Z,89.40
2023-03-24T20:53:21.499Z,89.30
2023-03-24T20:57:03.523Z,89.40
2023-03-24T21:00:48.520Z,89.30
2023-03-24T21:04:30.376Z,89.40
2023-03-24T21:08:12.199Z,89.50
2023-03-24T21:11:54.469Z,89.40
2023-03-24T21:15:42.663Z,89.40
2023-03-24T21:19:24.689Z,89.30
2023-03-24T21:23:09.620Z,89.30
2023-03-24T21:26:53.940Z,89.30
2023-03-24T21:30:37.140Z,89.50
2023-03-24T21:34:19.148Z,89.60
2023-03-24T21:38:01.386Z,89.80
2023-03-24T21:41:43.255Z,90.30
2023-03-24T21:45:25.119Z,90.00
2023-03-24T21:49:11.050Z,90.10
2023-03-24T21:52:54.031Z,90.10
2023-03-24T21:56:38.080Z,90.00
2023-03-24T22:00:23.815Z,90.10
2023-03-24T22:04:08.834Z,90.10
2023-03-24T22:07:51.519Z,90.10
2023-03-24T22:11:35.033Z,90.20
2023-03-24T22:15:17.232Z,90.30
2023-03-24T22:19:01.563Z,90.40
2023-03-24T22:22:43.847Z,90.30
2023-03-24T22:26:25.742Z,90.30
2023-03-24T22:30:09.908Z,90.40
2023-03-24T22:33:52.127Z,90.40
2023-03-24T22:37:34.218Z,90.40
2023-03-24T22:41:16.343Z,90.40
2023-03-24T22:44:58.146Z,90.50
2023-03-24T22:48:40.017Z,90.50
2023-03-24T22:52:21.826Z,90.50
2023-03-24T22:56:06.087Z,90.40
2023-03-24T22:59:48.096Z,90.40
2023-03-24T23:03:30.407Z,90.50
2023-03-24T23:07:12.214Z,90.50
2023-03-24T23:10:54.039Z,90.50
2023-03-24T23:14:38.146Z,90.40
2023-03-24T23:18:21.386Z,90.40
2023-03-24T23:22:04.525Z,90.30
2023-03-24T23:25:46.379Z,90.40
2023-03-24T23:29:28.157Z,90.40
2023-03-24T23:33:14.658Z,90.40
2023-03-24T23:36:56.898Z,90.40
2023-03-24T23:40:38.706Z,90.20
2023-03-24T23:44:20.703Z,90.20
2023-03-24T23:48:02.724Z,90.10
2023-03-24T23:51:44.616Z,90.10
2023-03-24T23:55:26.807Z,90.10
2023-03-24T23:59:09.902Z,90.10
